Time,TemperatureF,DewpointF,PressureIn,WindDirection,WindDirectionDegrees,WindSpeedMPH,WindSpeedGustMPH,Humidity,HourlyPrecipIn,Conditions,Clouds,dailyrainin,SoftwareType,DateUTC
2013-10-04 04:00:00,36.0,18.0,26.67,NE,43,11.0,20.0,47,0.09,,,1.08,,2013-10-04 10:00:00,
2013-10-04 04:19:00,36.0,18.0,26.66,North,360,14.0,23.0,47,0.08,,,1.10,,2013-10-04 10:19:00,
2013-10-04 05:00:00,35.0,17.0,26.67,NNE,24,12.0,22.0,47,0.07,,,1.15,,2013-10-04 11:00:00,
2013-10-04 05:18:00,35.0,17.0,26.67,North,355,12.0,23.0,47,0.07,,,1.17,,2013-10-04 11:18:00,
2013-10-04 05:59:00,34.0,16.0,26.66,NNW,340,13.0,24.0,48,0.07,,,1.22,,2013-10-04 11:59:00,
2013-10-04 06:18:00,34.0,16.0,26.67,NNW,340,12.0,18.0,48,0.05,,,1.22,,2013-10-04 12:18:00,
2013-10-04 06:28:00,34.0,16.0,26.67,North,360,13.0,24.0,48,0.04,,,1.22,,2013-10-04 12:28:00,
2013-10-04 06:47:00,34.0,16.0,26.67,NNW,333,15.0,23.0,48,0.02,,,1.22,,2013-10-04 12:47:00,
2013-10-04 06:59:00,34.0,17.0,26.66,NE,51,16.0,25.0,49,0.02,,,1.24,,2013-10-04 12:59:00,
2013-10-04 07:18:00,34.0,17.0,26.65,NNW,328,13.0,24.0,49,0.02,,,1.24,,2013-10-04 13:18:00,
2013-10-04 08:18:00,34.0,16.0,26.70,NW,316,17.0,25.0,48,0.11,,,1.36,,2013-10-04 14:18:00,
2013-10-04 08:27:00,34.0,16.0,26.70,NW,308,16.0,25.0,48,0.10,,,1.38,,2013-10-04 14:27:00,
2013-10-04 08:59:00,34.0,17.0,26.70,North,11,14.0,24.0,49,0.06,,,1.40,,2013-10-04 14:59:00,
2013-10-04 09:19:00,34.0,17.0,26.71,NW,315,13.0,25.0,49,0.07,,,1.43,,2013-10-04 15:19:00,
2013-10-04 10:03:00,-999.0,-99.9,26.68,North,360,15.0,26.0,-999,0.05,,,1.46,,2013-10-04 16:03:00,
2013-10-04 10:13:00,-999.0,-99.9,26.67,North,355,14.0,23.0,-999,0.03,,,1.46,,2013-10-04 16:13:00,
2013-10-04 10:22:00,-999.0,-99.9,26.67,North,355,14.0,23.0,-999,0.03,,,1.46,,2013-10-04 16:22:00,
2013-10-04 10:32:00,-999.0,-99.9,26.69,NW,318,14.0,25.0,-999,0.02,,,1.46,,2013-10-04 16:32:00,
2013-10-04 10:42:00,-999.0,-99.9,26.70,North,355,15.0,25.0,-999,0.01,,,1.46,,2013-10-04 16:42:00,
2013-10-04 10:52:00,-999.0,-99.9,26.70,North,355,15.0,25.0,-999,0.01,,,1.46,,2013-10-04 16:52:00,
2013-10-04 11:04:00,-999.0,-99.9,26.68,North,360,15.0,24.0,-999,0.00,,,1.46,,2013-10-04 17:04:00,
2013-10-04 11:12:00,-999.0,-99.9,26.68,NW,321,17.0,28.0,-999,0.00,,,1.46,,2013-10-04 17:12:00,
2013-10-04 11:23:00,-999.0,-99.9,26.68,NW,321,17.0,28.0,-999,0.00,,,1.46,,2013-10-04 17:23:00,
2013-10-04 11:32:00,-999.0,-99.9,26.68,NNW,347,16.0,31.0,-999,0.00,,,1.46,,2013-10-04 17:32:00,
2013-10-04 12:07:00,-999.0,-99.9,26.67,NNE,26,14.0,24.0,-999,0.00,,,1.46,,2013-10-04 18:07:00,
2013-10-04 12:15:00,-999.0,-99.9,26.67,NW,325,13.0,23.0,-999,0.01,,,1.47,,2013-10-04 18:15:00,
2013-10-04 12:26:00,-999.0,-99.9,26.67,NW,325,13.0,23.0,-999,0.01,,,1.47,,2013-10-04 18:26:00,
2013-10-04 12:34:00,-999.0,-99.9,26.67,NE,40,11.0,19.0,-999,0.02,,,1.48,,2013-10-04 18:34:00,
2013-10-04 12:43:00,-999.0,-99.9,26.67,NNW,333,11.0,18.0,-999,0.02,,,1.48,,2013-10-04 18:43:00,
2013-10-04 12:54:00,-999.0,-99.9,26.67,NNW,333,11.0,18.0,-999,0.02,,,1.48,,2013-10-04 18:54:00,
2013-10-04 13:02:00,-999.0,-99.9,26.66,NNE,33,15.0,28.0,-999,0.01,,,1.48,,2013-10-04 19:02:00,
2013-10-04 13:12:00,-999.0,-99.9,26.66,NNE,33,15.0,28.0,-999,0.01,,,1.48,,2013-10-04 19:12:00,
2013-10-04 13:22:00,-999.0,-99.9,26.65,NNW,331,16.0,24.0,-999,0.00,,,1.48,,2013-10-04 19:22:00,
2013-10-04 13:32:00,-999.0,-99.9,26.64,North,349,14.0,24.0,-999,0.00,,,1.48,,2013-10-04 19:32:00,
2013-10-04 13:43:00,-999.0,-99.9,26.64,North,349,14.0,24.0,-999,0.00,,,1.48,,2013-10-04 19:43:00,
2013-10-04 13:53:00,-999.0,-99.9,26.63,North,351,15.0,24.0,-999,0.00,,,1.48,,2013-10-04 19:53:00,
2013-10-04 14:02:00,-999.0,-99.9,26.64,NNE,17,12.0,23.0,-999,0.00,,,1.48,,2013-10-04 20:02:00,
2013-10-04 14:11:00,-999.0,-99.9,26.64,NNE,17,12.0,23.0,-999,0.00,,,1.48,,2013-10-04 20:11:00,
2013-10-04 14:22:00,-999.0,-99.9,26.66,NNW,348,12.0,19.0,-999,0.00,,,1.48,,2013-10-04 20:22:00,
2013-10-04 14:32:00,-999.0,-99.9,26.65,NNE,23,12.0,21.0,-999,0.00,,,1.48,,2013-10-04 20:32:00,
2013-10-04 14:43:00,-999.0,-99.9,26.65,North,349,13.0,22.0,-999,0.00,,,1.48,,2013-10-04 20:43:00,
2013-10-04 14:53:00,-999.0,-99.9,26.65,North,349,13.0,22.0,-999,0.00,,,1.48,,2013-10-04 20:53:00,
2013-10-04 15:01:00,-999.0,-99.9,26.65,NW,311,12.0,21.0,-999,0.00,,,1.48,,2013-10-04 21:01:00,
2013-10-04 15:12:00,-999.0,-99.9,26.65,NW,311,12.0,21.0,-999,0.00,,,1.48,,2013-10-04 21:12:00,
2013-10-04 15:22:00,-999.0,-99.9,26.64,North,355,15.0,22.0,-999,0.00,,,1.48,,2013-10-04 21:22:00,
2013-10-04 15:33:00,-999.0,-99.9,26.64,NNW,340,12.0,22.0,-999,0.00,,,1.48,,2013-10-04 21:33:00,
2013-10-04 15:43:00,-999.0,-99.9,26.64,NNW,333,17.0,23.0,-999,0.00,,,1.48,,2013-10-04 21:43:00,
2013-10-04 15:54:00,-999.0,-99.9,26.64,NNW,333,17.0,23.0,-999,0.00,,,1.48,,2013-10-04 21:54:00,
2013-10-04 16:03:00,-999.0,-99.9,26.64,NNW,333,14.0,22.0,-999,0.00,,,1.48,,2013-10-04 22:03:00,
2013-10-04 16:12:00,-999.0,-99.9,26.64,NNW,333,14.0,22.0,-999,0.00,,,1.48,,2013-10-04 22:12:00,
2013-10-04 16:23:00,-999.0,-99.9,26.64,NNW,334,15.0,23.0,-999,0.00,,,1.48,,2013-10-04 22:23:00,
2013-10-04 16:33:00,-999.0,-99.9,26.64,NNW,335,16.0,25.0,-999,0.00,,,1.48,,2013-10-04 22:33:00,
2013-10-04 16:43:00,-999.0,-99.9,26.64,NNW,335,16.0,25.0,-999,0.00,,,1.48,,2013-10-04 22:43:00,
2013-10-04 16:53:00,-999.0,-99.9,26.64,NNW,335,18.0,25.0,-999,0.00,,,1.48,,2013-10-04 22:53:00,
2013-10-04 17:03:00,-999.0,-99.9,26.63,NNW,335,15.0,23.0,-999,0.00,,,1.48,,2013-10-04 23:03:00,
2013-10-04 17:12:00,-999.0,-99.9,26.63,NNW,335,15.0,23.0,-999,0.00,,,1.48,,2013-10-04 23:12:00,
2013-10-04 17:22:00,-999.0,-99.9,26.64,NNW,335,14.0,24.0,-999,0.00,,,1.47,,2013-10-04 23:22:00,
2013-10-04 17:33:00,-999.0,-99.9,26.65,NNW,335,15.0,23.0,-999,0.00,,,1.47,,2013-10-04 23:33:00,
2013-10-04 17:42:00,-999.0,-99.9,26.64,NNW,335,18.0,25.0,-999,0.00,,,1.47,,2013-10-04 23:42:00,
2013-10-04 17:53:00,-999.0,-99.9,26.64,NNW,335,18.0,25.0,-999,0.00,,,1.47,,2013-10-04 23:53:00,
2013-10-04 18:02:00,-999.0,-99.9,26.65,NNW,335,13.0,23.0,-999,0.00,,,1.47,,2013-10-05 00:02:00,
2013-10-04 18:12:00,-999.0,-99.9,26.65,NNW,335,13.0,23.0,-999,0.00,,,1.47,,2013-10-05 00:12:00,
2013-10-04 18:23:00,-999.0,-99.9,26.65,NNW,335,13.0,23.0,-999,0.00,,,1.47,,2013-10-05 00:23:00,
2013-10-04 18:32:00,-999.0,-99.9,26.65,NNW,335,13.0,23.0,-999,0.00,,,1.47,,2013-10-05 00:32:00,
2013-10-04 18:42:00,-999.0,-99.9,26.65,NNW,335,13.0,23.0,-999,0.00,,,1.47,,2013-10-05 00:42:00,